sensor_id;sensor_type;location;lat;lon;timestamp;P1;durP1;ratioP1;P2;durP2;ratioP2
17997;SDS011;9124;48.144;17.098;2023-10-19T00:02:12;15.48;;;11.60;;
17997;SDS011;9124;48.144;17.098;2023-10-19T00:06:41;17.10;;;11.25;;
17997;SDS011;9124;48.144;17.098;2023-10-19T00:11:10;21.08;;;11.95;;
17997;SDS011;9124;48.144;17.098;2023-10-19T00:15:47;15.88;;;11.80;;
17997;SDS011;9124;48.144;17.098;2023-10-19T00:20:14;13.43;;;10.80;;
17997;SDS011;9124;48.144;17.098;2023-10-19T00:25:02;11.32;;;10.00;;
17997;SDS011;9124;48.144;17.098;2023-10-19T00:29:29;13.50;;;11.73;;
17997;SDS011;9124;48.144;17.098;2023-10-19T00:34:00;12.32;;;11.05;;
17997;SDS011;9124;48.144;17.098;2023-10-19T00:38:26;14.93;;;11.10;;
17997;SDS011;9124;48.144;17.098;2023-10-19T00:42:55;17.40;;;11.23;;
17997;SDS011;9124;48.144;17.098;2023-10-19T00:47:22;13.70;;;12.10;;
17997;SDS011;9124;48.144;17.098;2023-10-19T00:51:51;12.68;;;11.32;;
17997;SDS011;9124;48.144;17.098;2023-10-19T00:56:19;16.48;;;12.07;;
17997;SDS011;9124;48.144;17.098;2023-10-19T01:00:48;13.30;;;11.50;;
17997;SDS011;9124;48.144;17.098;2023-10-19T01:05:16;13.30;;;12.02;;
17997;SDS011;9124;48.144;17.098;2023-10-19T01:09:47;15.95;;;12.07;;
17997;SDS011;9124;48.144;17.098;2023-10-19T01:14:21;14.35;;;12.05;;
17997;SDS011;9124;48.144;17.098;2023-10-19T01:18:52;12.65;;;11.45;;
17997;SDS011;9124;48.144;17.098;2023-10-19T01:23:21;14.75;;;11.57;;
17997;SDS011;9124;48.144;17.098;2023-10-19T01:27:57;14.55;;;12.93;;
17997;SDS011;9124;48.144;17.098;2023-10-19T01:32:23;16.95;;;11.40;;
17997;SDS011;9124;48.144;17.098;2023-10-19T01:36:49;13.40;;;11.32;;
17997;SDS011;9124;48.144;17.098;2023-10-19T01:41:16;18.13;;;12.80;;
17997;SDS011;9124;48.144;17.098;2023-10-19T01:45:44;16.13;;;12.55;;
17997;SDS011;9124;48.144;17.098;2023-10-19T01:50:10;15.70;;;13.20;;
17997;SDS011;9124;48.144;17.098;2023-10-19T01:54:45;17.95;;;12.60;;
17997;SDS011;9124;48.144;17.098;2023-10-19T01:59:11;13.38;;;10.85;;
17997;SDS011;9124;48.144;17.098;2023-10-19T02:03:39;14.50;;;11.77;;
17997;SDS011;9124;48.144;17.098;2023-10-19T02:08:10;16.45;;;12.52;;
17997;SDS011;9124;48.144;17.098;2023-10-19T02:12:36;17.30;;;13.15;;
17997;SDS011;9124;48.144;17.098;2023-10-19T02:17:05;16.63;;;12.70;;
17997;SDS011;9124;48.144;17.098;2023-10-19T02:21:32;13.75;;;12.68;;
17997;SDS011;9124;48.144;17.098;2023-10-19T02:26:03;14.60;;;12.13;;
17997;SDS011;9124;48.144;17.098;2023-10-19T02:30:31;17.05;;;13.13;;
17997;SDS011;9124;48.144;17.098;2023-10-19T02:34:59;14.55;;;13.18;;
17997;SDS011;9124;48.144;17.098;2023-10-19T02:39:27;15.50;;;12.52;;
17997;SDS011;9124;48.144;17.098;2023-10-19T02:43:56;16.52;;;13.48;;
17997;SDS011;9124;48.144;17.098;2023-10-19T02:48:34;13.80;;;12.50;;
17997;SDS011;9124;48.144;17.098;2023-10-19T02:53:01;18.13;;;13.40;;
17997;SDS011;9124;48.144;17.098;2023-10-19T02:57:29;14.60;;;13.13;;
17997;SDS011;9124;48.144;17.098;2023-10-19T03:01:58;15.82;;;13.43;;
17997;SDS011;9124;48.144;17.098;2023-10-19T03:06:38;15.05;;;13.73;;
17997;SDS011;9124;48.144;17.098;2023-10-19T03:11:06;14.20;;;13.02;;
17997;SDS011;9124;48.144;17.098;2023-10-19T03:15:33;13.95;;;12.35;;
17997;SDS011;9124;48.144;17.098;2023-10-19T03:19:59;16.98;;;12.88;;
17997;SDS011;9124;48.144;17.098;2023-10-19T03:24:26;16.55;;;13.82;;
17997;SDS011;9124;48.144;17.098;2023-10-19T03:29:04;17.52;;;13.77;;
17997;SDS011;9124;48.144;17.098;2023-10-19T03:33:37;15.90;;;12.90;;
17997;SDS011;9124;48.144;17.098;2023-10-19T03:38:06;22.52;;;14.32;;
17997;SDS011;9124;48.144;17.098;2023-10-19T03:42:46;16.05;;;14.10;;
17997;SDS011;9124;48.144;17.098;2023-10-19T03:47:13;21.38;;;13.15;;
17997;SDS011;9124;48.144;17.098;2023-10-19T03:51:46;14.88;;;13.40;;
17997;SDS011;9124;48.144;17.098;2023-10-19T03:56:24;18.73;;;12.98;;
17997;SDS011;9124;48.144;17.098;2023-10-19T04:00:51;13.73;;;12.52;;
17997;SDS011;9124;48.144;17.098;2023-10-19T04:05:18;15.32;;;13.80;;
17997;SDS011;9124;48.144;17.098;2023-10-19T04:09:52;15.85;;;12.60;;
17997;SDS011;9124;48.144;17.098;2023-10-19T04:14:32;14.57;;;13.10;;
17997;SDS011;9124;48.144;17.098;2023-10-19T04:18:59;15.38;;;13.82;;
17997;SDS011;9124;48.144;17.098;2023-10-19T04:23:27;15.50;;;14.07;;
17997;SDS011;9124;48.144;17.098;2023-10-19T04:27:53;16.45;;;15.02;;
17997;SDS011;9124;48.144;17.098;2023-10-19T04:32:22;16.15;;;14.50;;
17997;SDS011;9124;48.144;17.098;2023-10-19T04:36:52;15.07;;;13.55;;
17997;SDS011;9124;48.144;17.098;2023-10-19T04:41:18;28.35;;;15.25;;
17997;SDS011;9124;48.144;17.098;2023-10-19T04:45:44;17.88;;;15.00;;
17997;SDS011;9124;48.144;17.098;2023-10-19T04:50:11;22.90;;;16.33;;
17997;SDS011;9124;48.144;17.098;2023-10-19T04:54:37;29.27;;;17.30;;
17997;SDS011;9124;48.144;17.098;2023-10-19T04:59:04;20.00;;;17.73;;
17997;SDS011;9124;48.144;17.098;2023-10-19T05:03:30;28.48;;;18.65;;
17997;SDS011;9124;48.144;17.098;2023-10-19T05:07:58;22.15;;;19.75;;
17997;SDS011;9124;48.144;17.098;2023-10-19T05:12:24;27.65;;;20.10;;
17997;SDS011;9124;48.144;17.098;2023-10-19T05:16:51;24.58;;;21.17;;
17997;SDS011;9124;48.144;17.098;2023-10-19T05:21:17;27.42;;;21.88;;
17997;SDS011;9124;48.144;17.098;2023-10-19T05:25:43;33.35;;;22.67;;
17997;SDS011;9124;48.144;17.098;2023-10-19T05:30:12;25.13;;;22.27;;
17997;SDS011;9124;48.144;17.098;2023-10-19T05:34:39;28.30;;;24.08;;
17997;SDS011;9124;48.144;17.098;2023-10-19T05:39:05;30.27;;;24.00;;
17997;SDS011;9124;48.144;17.098;2023-10-19T05:43:33;31.38;;;24.85;;
17997;SDS011;9124;48.144;17.098;2023-10-19T05:48:00;30.52;;;25.58;;
17997;SDS011;9124;48.144;17.098;2023-10-19T05:52:26;28.45;;;25.50;;
17997;SDS011;9124;48.144;17.098;2023-10-19T05:56:53;28.52;;;25.48;;
17997;SDS011;9124;48.144;17.098;2023-10-19T06:01:19;33.50;;;24.30;;
17997;SDS011;9124;48.144;17.098;2023-10-19T06:05:47;26.60;;;23.80;;
17997;SDS011;9124;48.144;17.098;2023-10-19T06:10:18;26.35;;;23.48;;
17997;SDS011;9124;48.144;17.098;2023-10-19T06:14:46;29.50;;;24.83;;
17997;SDS011;9124;48.144;17.098;2023-10-19T06:19:12;36.60;;;26.52;;
17997;SDS011;9124;48.144;17.098;2023-10-19T06:23:38;29.05;;;26.17;;
17997;SDS011;9124;48.144;17.098;2023-10-19T06:28:05;34.03;;;25.33;;
17997;SDS011;9124;48.144;17.098;2023-10-19T06:32:33;31.30;;;26.92;;
17997;SDS011;9124;48.144;17.098;2023-10-19T06:36:59;31.17;;;25.92;;
17997;SDS011;9124;48.144;17.098;2023-10-19T06:41:26;29.55;;;26.20;;
17997;SDS011;9124;48.144;17.098;2023-10-19T06:45:53;32.20;;;26.50;;
17997;SDS011;9124;48.144;17.098;2023-10-19T06:50:21;29.58;;;25.95;;
17997;SDS011;9124;48.144;17.098;2023-10-19T06:54:48;34.80;;;25.90;;
17997;SDS011;9124;48.144;17.098;2023-10-19T06:59:16;35.38;;;29.95;;
17997;SDS011;9124;48.144;17.098;2023-10-19T07:03:43;35.72;;;29.50;;
17997;SDS011;9124;48.144;17.098;2023-10-19T07:08:10;26.70;;;23.92;;
17997;SDS011;9124;48.144;17.098;2023-10-19T07:12:36;35.70;;;29.27;;
17997;SDS011;9124;48.144;17.098;2023-10-19T07:17:02;32.67;;;28.83;;
17997;SDS011;9124;48.144;17.098;2023-10-19T07:21:28;32.40;;;27.63;;
17997;SDS011;9124;48.144;17.098;2023-10-19T07:26:00;35.65;;;27.02;;
17997;SDS011;9124;48.144;17.098;2023-10-19T07:30:26;34.15;;;28.90;;
17997;SDS011;9124;48.144;17.098;2023-10-19T07:34:53;39.03;;;30.10;;
17997;SDS011;9124;48.144;17.098;2023-10-19T07:39:20;37.55;;;29.85;;
17997;SDS011;9124;48.144;17.098;2023-10-19T07:43:49;39.15;;;31.58;;
17997;SDS011;9124;48.144;17.098;2023-10-19T07:48:15;37.15;;;31.45;;
17997;SDS011;9124;48.144;17.098;2023-10-19T07:52:43;36.85;;;32.45;;
17997;SDS011;9124;48.144;17.098;2023-10-19T07:57:09;37.83;;;31.55;;
17997;SDS011;9124;48.144;17.098;2023-10-19T08:01:39;35.55;;;31.63;;
17997;SDS011;9124;48.144;17.098;2023-10-19T08:06:05;40.28;;;32.78;;
17997;SDS011;9124;48.144;17.098;2023-10-19T08:10:32;43.47;;;33.25;;
17997;SDS011;9124;48.144;17.098;2023-10-19T08:15:00;38.80;;;31.85;;
17997;SDS011;9124;48.144;17.098;2023-10-19T08:19:29;36.10;;;32.15;;
17997;SDS011;9124;48.144;17.098;2023-10-19T08:23:58;38.83;;;31.02;;
17997;SDS011;9124;48.144;17.098;2023-10-19T08:28:25;37.55;;;31.63;;
17997;SDS011;9124;48.144;17.098;2023-10-19T08:32:51;36.90;;;32.47;;
17997;SDS011;9124;48.144;17.098;2023-10-19T08:37:18;39.08;;;31.55;;
17997;SDS011;9124;48.144;17.098;2023-10-19T08:41:44;35.90;;;30.85;;
17997;SDS011;9124;48.144;17.098;2023-10-19T08:46:14;36.00;;;29.88;;
17997;SDS011;9124;48.144;17.098;2023-10-19T08:50:41;36.05;;;30.73;;
17997;SDS011;9124;48.144;17.098;2023-10-19T08:55:08;38.50;;;30.05;;
17997;SDS011;9124;48.144;17.098;2023-10-19T08:59:38;34.90;;;29.25;;
17997;SDS011;9124;48.144;17.098;2023-10-19T09:04:05;48.20;;;30.73;;
17997;SDS011;9124;48.144;17.098;2023-10-19T09:08:34;34.85;;;31.05;;
17997;SDS011;9124;48.144;17.098;2023-10-19T09:13:04;36.58;;;30.45;;
17997;SDS011;9124;48.144;17.098;2023-10-19T09:17:35;33.35;;;29.88;;
17997;SDS011;9124;48.144;17.098;2023-10-19T09:22:02;36.75;;;29.50;;
17997;SDS011;9124;48.144;17.098;2023-10-19T09:26:45;35.17;;;28.98;;
17997;SDS011;9124;48.144;17.098;2023-10-19T09:31:11;37.22;;;28.58;;
17997;SDS011;9124;48.144;17.098;2023-10-19T09:35:38;31.30;;;27.90;;
17997;SDS011;9124;48.144;17.098;2023-10-19T09:40:09;31.02;;;27.98;;
17997;SDS011;9124;48.144;17.098;2023-10-19T09:44:51;33.55;;;29.92;;
17997;SDS011;9124;48.144;17.098;2023-10-19T09:49:31;34.40;;;27.45;;
17997;SDS011;9124;48.144;17.098;2023-10-19T09:53:59;30.42;;;27.38;;
17997;SDS011;9124;48.144;17.098;2023-10-19T09:58:33;30.88;;;25.83;;
17997;SDS011;9124;48.144;17.098;2023-10-19T10:03:41;33.47;;;24.85;;
17997;SDS011;9124;48.144;17.098;2023-10-19T10:08:33;31.95;;;28.63;;
17997;SDS011;9124;48.144;17.098;2023-10-19T10:13:35;32.30;;;27.80;;
17997;SDS011;9124;48.144;17.098;2023-10-19T10:17:58;34.25;;;28.20;;
17997;SDS011;9124;48.144;17.098;2023-10-19T10:22:26;31.50;;;27.58;;
17997;SDS011;9124;48.144;17.098;2023-10-19T10:26:59;31.77;;;25.17;;
17997;SDS011;9124;48.144;17.098;2023-10-19T10:31:26;27.80;;;25.05;;
17997;SDS011;9124;48.144;17.098;2023-10-19T10:35:53;30.40;;;22.38;;
17997;SDS011;9124;48.144;17.098;2023-10-19T10:40:19;23.58;;;21.15;;
17997;SDS011;9124;48.144;17.098;2023-10-19T10:44:49;22.65;;;20.40;;
17997;SDS011;9124;48.144;17.098;2023-10-19T10:49:21;21.70;;;19.52;;
17997;SDS011;9124;48.144;17.098;2023-10-19T10:53:49;20.85;;;18.80;;
17997;SDS011;9124;48.144;17.098;2023-10-19T10:58:18;26.80;;;19.42;;
17997;SDS011;9124;48.144;17.098;2023-10-19T11:02:46;21.83;;;18.90;;
17997;SDS011;9124;48.144;17.098;2023-10-19T11:07:19;26.60;;;18.13;;
17997;SDS011;9124;48.144;17.098;2023-10-19T11:11:45;23.33;;;19.17;;
17997;SDS011;9124;48.144;17.098;2023-10-19T11:16:21;21.00;;;18.85;;
17997;SDS011;9124;48.144;17.098;2023-10-19T11:20:53;21.20;;;18.83;;
17997;SDS011;9124;48.144;17.098;2023-10-19T11:25:24;20.25;;;18.27;;
17997;SDS011;9124;48.144;17.098;2023-10-19T11:29:57;22.60;;;19.88;;
17997;SDS011;9124;48.144;17.098;2023-10-19T11:34:24;22.63;;;19.23;;
17997;SDS011;9124;48.144;17.098;2023-10-19T11:38:51;21.20;;;19.05;;
17997;SDS011;9124;48.144;17.098;2023-10-19T11:43:19;21.20;;;19.08;;
17997;SDS011;9124;48.144;17.098;2023-10-19T11:47:49;24.42;;;21.23;;
17997;SDS011;9124;48.144;17.098;2023-10-19T11:52:16;24.15;;;20.17;;
17997;SDS011;9124;48.144;17.098;2023-10-19T11:56:44;25.55;;;19.38;;
17997;SDS011;9124;48.144;17.098;2023-10-19T12:01:11;21.50;;;19.33;;
17997;SDS011;9124;48.144;17.098;2023-10-19T12:05:38;25.48;;;18.80;;
17997;SDS011;9124;48.144;17.098;2023-10-19T12:10:07;21.58;;;19.23;;
17997;SDS011;9124;48.144;17.098;2023-10-19T12:14:38;20.67;;;18.33;;
17997;SDS011;9124;48.144;17.098;2023-10-19T12:19:05;21.33;;;19.10;;
17997;SDS011;9124;48.144;17.098;2023-10-19T12:23:31;24.60;;;19.80;;
17997;SDS011;9124;48.144;17.098;2023-10-19T12:27:58;21.15;;;19.30;;
17997;SDS011;9124;48.144;17.098;2023-10-19T12:32:28;22.98;;;19.40;;
17997;SDS011;9124;48.144;17.098;2023-10-19T12:36:55;21.10;;;18.95;;
17997;SDS011;9124;48.144;17.098;2023-10-19T12:41:24;24.02;;;19.55;;
17997;SDS011;9124;48.144;17.098;2023-10-19T12:45:51;21.50;;;19.30;;
17997;SDS011;9124;48.144;17.098;2023-10-19T12:50:21;21.02;;;19.02;;
17997;SDS011;9124;48.144;17.098;2023-10-19T12:54:49;25.02;;;19.67;;
17997;SDS011;9124;48.144;17.098;2023-10-19T12:59:20;21.17;;;19.02;;
17997;SDS011;9124;48.144;17.098;2023-10-19T13:03:48;22.17;;;17.80;;
17997;SDS011;9124;48.144;17.098;2023-10-19T13:08:15;28.45;;;23.30;;
17997;SDS011;9124;48.144;17.098;2023-10-19T13:12:41;26.10;;;22.58;;
17997;SDS011;9124;48.144;17.098;2023-10-19T13:17:08;22.42;;;20.23;;
17997;SDS011;9124;48.144;17.098;2023-10-19T13:21:35;22.30;;;19.98;;
17997;SDS011;9124;48.144;17.098;2023-10-19T13:26:04;21.88;;;19.77;;
17997;SDS011;9124;48.144;17.098;2023-10-19T13:30:53;21.40;;;19.20;;
17997;SDS011;9124;48.144;17.098;2023-10-19T13:35:20;22.50;;;19.50;;
17997;SDS011;9124;48.144;17.098;2023-10-19T13:39:46;25.67;;;20.67;;
17997;SDS011;9124;48.144;17.098;2023-10-19T13:44:13;21.15;;;19.15;;
17997;SDS011;9124;48.144;17.098;2023-10-19T13:48:40;22.05;;;19.60;;
17997;SDS011;9124;48.144;17.098;2023-10-19T13:53:07;22.02;;;19.60;;
17997;SDS011;9124;48.144;17.098;2023-10-19T13:57:33;27.92;;;19.98;;
17997;SDS011;9124;48.144;17.098;2023-10-19T14:01:59;21.02;;;18.95;;
17997;SDS011;9124;48.144;17.098;2023-10-19T14:06:26;25.33;;;19.83;;
17997;SDS011;9124;48.144;17.098;2023-10-19T14:10:52;22.73;;;20.25;;
17997;SDS011;9124;48.144;17.098;2023-10-19T14:15:19;24.75;;;21.33;;
17997;SDS011;9124;48.144;17.098;2023-10-19T14:19:45;23.20;;;20.90;;
17997;SDS011;9124;48.144;17.098;2023-10-19T14:24:12;28.27;;;20.70;;
17997;SDS011;9124;48.144;17.098;2023-10-19T14:28:38;24.80;;;21.92;;
17997;SDS011;9124;48.144;17.098;2023-10-19T14:33:06;24.83;;;21.00;;
17997;SDS011;9124;48.144;17.098;2023-10-19T14:37:38;22.90;;;20.80;;
17997;SDS011;9124;48.144;17.098;2023-10-19T14:42:05;23.10;;;20.63;;
17997;SDS011;9124;48.144;17.098;2023-10-19T14:46:32;23.50;;;21.33;;
17997;SDS011;9124;48.144;17.098;2023-10-19T14:50:59;25.65;;;22.38;;
17997;SDS011;9124;48.144;17.098;2023-10-19T14:55:25;25.67;;;22.95;;
17997;SDS011;9124;48.144;17.098;2023-10-19T14:59:52;27.60;;;23.33;;
17997;SDS011;9124;48.144;17.098;2023-10-19T15:04:19;32.50;;;23.75;;
17997;SDS011;9124;48.144;17.098;2023-10-19T15:08:46;26.00;;;23.13;;
17997;SDS011;9124;48.144;17.098;2023-10-19T15:13:12;29.50;;;25.25;;
17997;SDS011;9124;48.144;17.098;2023-10-19T15:17:39;29.80;;;25.33;;
17997;SDS011;9124;48.144;17.098;2023-10-19T15:22:06;29.83;;;25.45;;
17997;SDS011;9124;48.144;17.098;2023-10-19T15:26:33;28.10;;;24.27;;
17997;SDS011;9124;48.144;17.098;2023-10-19T15:30:59;34.28;;;24.75;;
17997;SDS011;9124;48.144;17.098;2023-10-19T15:35:26;25.20;;;22.55;;
17997;SDS011;9124;48.144;17.098;2023-10-19T15:39:54;26.15;;;23.30;;
17997;SDS011;9124;48.144;17.098;2023-10-19T15:44:20;29.10;;;24.42;;
17997;SDS011;9124;48.144;17.098;2023-10-19T15:48:47;30.45;;;26.15;;
17997;SDS011;9124;48.144;17.098;2023-10-19T15:53:13;29.33;;;24.95;;
17997;SDS011;9124;48.144;17.098;2023-10-19T15:57:41;28.33;;;25.33;;
17997;SDS011;9124;48.144;17.098;2023-10-19T16:02:07;34.28;;;26.92;;
17997;SDS011;9124;48.144;17.098;2023-10-19T16:06:36;31.63;;;25.58;;
17997;SDS011;9124;48.144;17.098;2023-10-19T16:11:02;28.95;;;25.88;;
17997;SDS011;9124;48.144;17.098;2023-10-19T16:15:30;30.50;;;26.80;;
17997;SDS011;9124;48.144;17.098;2023-10-19T16:19:56;34.45;;;28.27;;
17997;SDS011;9124;48.144;17.098;2023-10-19T16:24:23;30.92;;;27.70;;
17997;SDS011;9124;48.144;17.098;2023-10-19T16:28:50;33.05;;;27.27;;
17997;SDS011;9124;48.144;17.098;2023-10-19T16:33:16;31.92;;;28.55;;
17997;SDS011;9124;48.144;17.098;2023-10-19T16:37:43;28.45;;;25.45;;
17997;SDS011;9124;48.144;17.098;2023-10-19T16:42:09;33.35;;;28.25;;
17997;SDS011;9124;48.144;17.098;2023-10-19T16:46:36;31.08;;;26.88;;
17997;SDS011;9124;48.144;17.098;2023-10-19T16:51:03;36.38;;;28.60;;
17997;SDS011;9124;48.144;17.098;2023-10-19T16:55:30;32.55;;;27.05;;
17997;SDS011;9124;48.144;17.098;2023-10-19T16:59:56;33.55;;;27.52;;
17997;SDS011;9124;48.144;17.098;2023-10-19T17:04:22;33.85;;;26.98;;
17997;SDS011;9124;48.144;17.098;2023-10-19T17:08:51;38.50;;;28.20;;
17997;SDS011;9124;48.144;17.098;2023-10-19T17:13:17;32.45;;;27.40;;
17997;SDS011;9124;48.144;17.098;2023-10-19T17:17:43;32.45;;;27.20;;
17997;SDS011;9124;48.144;17.098;2023-10-19T17:22:10;37.55;;;27.77;;
17997;SDS011;9124;48.144;17.098;2023-10-19T17:26:36;35.60;;;26.95;;
17997;SDS011;9124;48.144;17.098;2023-10-19T17:31:03;37.28;;;29.02;;
17997;SDS011;9124;48.144;17.098;2023-10-19T17:35:31;35.38;;;29.52;;
17997;SDS011;9124;48.144;17.098;2023-10-19T17:39:57;43.85;;;27.58;;
17997;SDS011;9124;48.144;17.098;2023-10-19T17:44:23;31.70;;;28.25;;
17997;SDS011;9124;48.144;17.098;2023-10-19T17:48:50;54.55;;;37.72;;
17997;SDS011;9124;48.144;17.098;2023-10-19T17:53:19;36.15;;;30.10;;
17997;SDS011;9124;48.144;17.098;2023-10-19T17:57:48;39.45;;;29.90;;
17997;SDS011;9124;48.144;17.098;2023-10-19T18:02:15;35.25;;;29.23;;
17997;SDS011;9124;48.144;17.098;2023-10-19T18:06:42;38.55;;;30.70;;
17997;SDS011;9124;48.144;17.098;2023-10-19T18:11:11;35.90;;;30.45;;
17997;SDS011;9124;48.144;17.098;2023-10-19T18:15:39;34.25;;;29.05;;
17997;SDS011;9124;48.144;17.098;2023-10-19T18:20:05;41.97;;;30.83;;
17997;SDS011;9124;48.144;17.098;2023-10-19T18:24:36;37.67;;;30.92;;
17997;SDS011;9124;48.144;17.098;2023-10-19T18:29:03;40.10;;;30.92;;
17997;SDS011;9124;48.144;17.098;2023-10-19T18:33:30;42.35;;;32.38;;
17997;SDS011;9124;48.144;17.098;2023-10-19T18:37:58;43.55;;;32.45;;
17997;SDS011;9124;48.144;17.098;2023-10-19T18:42:24;36.63;;;31.65;;
17997;SDS011;9124;48.144;17.098;2023-10-19T18:46:51;39.80;;;30.77;;
17997;SDS011;9124;48.144;17.098;2023-10-19T18:51:17;41.78;;;31.92;;
17997;SDS011;9124;48.144;17.098;2023-10-19T18:55:48;39.03;;;31.10;;
17997;SDS011;9124;48.144;17.098;2023-10-19T19:00:16;35.03;;;29.52;;
17997;SDS011;9124;48.144;17.098;2023-10-19T19:04:49;43.67;;;29.05;;
17997;SDS011;9124;48.144;17.098;2023-10-19T19:09:16;37.78;;;29.63;;
17997;SDS011;9124;48.144;17.098;2023-10-19T19:13:44;39.97;;;30.15;;
17997;SDS011;9124;48.144;17.098;2023-10-19T19:18:10;35.33;;;28.80;;
17997;SDS011;9124;48.144;17.098;2023-10-19T19:22:37;34.67;;;27.83;;
17997;SDS011;9124;48.144;17.098;2023-10-19T19:27:04;34.08;;;29.30;;
17997;SDS011;9124;48.144;17.098;2023-10-19T19:31:31;43.70;;;29.20;;
17997;SDS011;9124;48.144;17.098;2023-10-19T19:35:57;34.45;;;29.00;;
17997;SDS011;9124;48.144;17.098;2023-10-19T19:40:24;41.58;;;31.33;;
17997;SDS011;9124;48.144;17.098;2023-10-19T19:44:50;38.70;;;31.42;;
17997;SDS011;9124;48.144;17.098;2023-10-19T19:49:16;37.22;;;29.90;;
17997;SDS011;9124;48.144;17.098;2023-10-19T19:53:43;39.72;;;32.22;;
17997;SDS011;9124;48.144;17.098;2023-10-19T19:58:09;42.38;;;32.05;;
17997;SDS011;9124;48.144;17.098;2023-10-19T20:02:36;38.10;;;30.92;;
17997;SDS011;9124;48.144;17.098;2023-10-19T20:07:02;37.15;;;30.40;;
17997;SDS011;9124;48.144;17.098;2023-10-19T20:11:29;36.55;;;28.77;;
17997;SDS011;9124;48.144;17.098;2023-10-19T20:15:55;38.05;;;28.13;;
17997;SDS011;9124;48.144;17.098;2023-10-19T20:20:22;39.78;;;28.73;;
17997;SDS011;9124;48.144;17.098;2023-10-19T20:24:49;38.03;;;29.88;;
17997;SDS011;9124;48.144;17.098;2023-10-19T20:29:15;37.97;;;28.88;;
17997;SDS011;9124;48.144;17.098;2023-10-19T20:33:42;41.53;;;30.90;;
17997;SDS011;9124;48.144;17.098;2023-10-19T20:38:08;44.58;;;31.05;;
17997;SDS011;9124;48.144;17.098;2023-10-19T20:42:36;46.45;;;31.25;;
17997;SDS011;9124;48.144;17.098;2023-10-19T20:47:08;43.53;;;33.13;;
17997;SDS011;9124;48.144;17.098;2023-10-19T20:51:35;35.50;;;25.30;;
17997;SDS011;9124;48.144;17.098;2023-10-19T20:56:01;40.85;;;30.25;;
17997;SDS011;9124;48.144;17.098;2023-10-19T21:00:28;38.30;;;27.85;;
17997;SDS011;9124;48.144;17.098;2023-10-19T21:04:54;39.45;;;30.77;;
17997;SDS011;9124;48.144;17.098;2023-10-19T21:09:20;42.15;;;33.05;;
17997;SDS011;9124;48.144;17.098;2023-10-19T21:13:49;41.97;;;30.77;;
17997;SDS011;9124;48.144;17.098;2023-10-19T21:18:15;42.75;;;30.63;;
17997;SDS011;9124;48.144;17.098;2023-10-19T21:22:45;44.88;;;31.65;;
17997;SDS011;9124;48.144;17.098;2023-10-19T21:27:15;39.47;;;29.42;;
17997;SDS011;9124;48.144;17.098;2023-10-19T21:31:44;38.88;;;29.75;;
17997;SDS011;9124;48.144;17.098;2023-10-19T21:36:11;41.38;;;29.75;;
17997;SDS011;9124;48.144;17.098;2023-10-19T21:40:40;42.22;;;29.38;;
17997;SDS011;9124;48.144;17.098;2023-10-19T21:45:08;42.90;;;30.08;;
17997;SDS011;9124;48.144;17.098;2023-10-19T21:49:35;48.17;;;30.25;;
17997;SDS011;9124;48.144;17.098;2023-10-19T21:54:01;41.75;;;28.63;;
17997;SDS011;9124;48.144;17.098;2023-10-19T21:58:28;40.58;;;28.70;;
17997;SDS011;9124;48.144;17.098;2023-10-19T22:02:55;39.13;;;29.83;;
17997;SDS011;9124;48.144;17.098;2023-10-19T22:07:22;35.83;;;27.80;;
17997;SDS011;9124;48.144;17.098;2023-10-19T22:11:49;41.55;;;31.38;;
17997;SDS011;9124;48.144;17.098;2023-10-19T22:16:16;40.17;;;29.10;;
17997;SDS011;9124;48.144;17.098;2023-10-19T22:20:44;34.67;;;27.52;;
17997;SDS011;9124;48.144;17.098;2023-10-19T22:25:11;44.17;;;30.55;;
17997;SDS011;9124;48.144;17.098;2023-10-19T22:29:46;38.08;;;29.13;;
17997;SDS011;9124;48.144;17.098;2023-10-19T22:34:13;34.85;;;27.83;;
17997;SDS011;9124;48.144;17.098;2023-10-19T22:38:39;41.65;;;29.02;;
17997;SDS011;9124;48.144;17.098;2023-10-19T22:43:05;38.70;;;28.42;;
17997;SDS011;9124;48.144;17.098;2023-10-19T22:47:32;39.90;;;29.25;;
17997;SDS011;9124;48.144;17.098;2023-10-19T22:52:00;46.65;;;31.02;;
17997;SDS011;9124;48.144;17.098;2023-10-19T22:56:26;46.78;;;31.70;;
17997;SDS011;9124;48.144;17.098;2023-10-19T23:00:52;44.15;;;30.10;;
17997;SDS011;9124;48.144;17.098;2023-10-19T23:05:18;44.42;;;29.73;;
17997;SDS011;9124;48.144;17.098;2023-10-19T23:09:46;46.63;;;31.98;;
17997;SDS011;9124;48.144;17.098;2023-10-19T23:14:12;50.88;;;32.65;;
17997;SDS011;9124;48.144;17.098;2023-10-19T23:18:42;48.33;;;34.33;;
17997;SDS011;9124;48.144;17.098;2023-10-19T23:23:11;56.25;;;32.22;;
17997;SDS011;9124;48.144;17.098;2023-10-19T23:27:38;43.10;;;30.30;;
17997;SDS011;9124;48.144;17.098;2023-10-19T23:32:07;51.10;;;33.40;;
17997;SDS011;9124;48.144;17.098;2023-10-19T23:36:35;45.45;;;31.17;;
17997;SDS011;9124;48.144;17.098;2023-10-19T23:41:01;47.63;;;30.67;;
17997;SDS011;9124;48.144;17.098;2023-10-19T23:45:28;39.30;;;29.40;;
17997;SDS011;9124;48.144;17.098;2023-10-19T23:49:54;36.88;;;28.92;;
17997;SDS011;9124;48.144;17.098;2023-10-19T23:54:20;41.58;;;28.23;;
17997;SDS011;9124;48.144;17.098;2023-10-19T23:58:47;43.03;;;31.05;;
